sensor_id;sensor_type;location;lat;lon;timestamp;temperature;humidity
45044;DHT22;30784;48.490;9.688;2022-08-19T00:01:55;22.30;57.80
45044;DHT22;30784;48.490;9.688;2022-08-19T00:04:24;22.30;57.90
45044;DHT22;30784;48.490;9.688;2022-08-19T00:06:50;22.30;58.00
45044;DHT22;30784;48.490;9.688;2022-08-19T00:09:19;22.20;57.90
45044;DHT22;30784;48.490;9.688;2022-08-19T00:11:45;22.20;58.20
45044;DHT22;30784;48.490;9.688;2022-08-19T00:14:13;22.20;58.40
45044;DHT22;30784;48.490;9.688;2022-08-19T00:16:40;22.10;58.50
45044;DHT22;30784;48.490;9.688;2022-08-19T00:19:07;22.10;58.60
45044;DHT22;30784;48.490;9.688;2022-08-19T00:21:33;22.10;58.50
45044;DHT22;30784;48.490;9.688;2022-08-19T00:24:03;22.00;58.70
45044;DHT22;30784;48.490;9.688;2022-08-19T00:26:29;22.00;58.70
45044;DHT22;30784;48.490;9.688;2022-08-19T00:28:55;22.00;58.80
45044;DHT22;30784;48.490;9.688;2022-08-19T00:31:20;21.90;58.90
45044;DHT22;30784;48.490;9.688;2022-08-19T00:33:47;21.90;59.10
45044;DHT22;30784;48.490;9.688;2022-08-19T00:36:14;21.90;59.30
45044;DHT22;30784;48.490;9.688;2022-08-19T00:38:40;21.90;59.10
45044;DHT22;30784;48.490;9.688;2022-08-19T00:41:19;21.80;59.30
45044;DHT22;30784;48.490;9.688;2022-08-19T00:46:34;21.70;58.90
45044;DHT22;30784;48.490;9.688;2022-08-19T00:49:06;21.70;59.30
45044;DHT22;30784;48.490;9.688;2022-08-19T00:51:32;21.70;59.40
45044;DHT22;30784;48.490;9.688;2022-08-19T00:53:59;21.70;59.50
45044;DHT22;30784;48.490;9.688;2022-08-19T00:56:26;21.70;59.40
45044;DHT22;30784;48.490;9.688;2022-08-19T00:58:55;21.60;59.50
45044;DHT22;30784;48.490;9.688;2022-08-19T01:01:21;21.60;59.50
45044;DHT22;30784;48.490;9.688;2022-08-19T01:03:47;21.60;59.70
45044;DHT22;30784;48.490;9.688;2022-08-19T01:06:13;21.60;59.60
45044;DHT22;30784;48.490;9.688;2022-08-19T01:08:39;21.60;59.80
45044;DHT22;30784;48.490;9.688;2022-08-19T01:11:06;21.60;59.80
45044;DHT22;30784;48.490;9.688;2022-08-19T01:13:34;21.50;59.80
45044;DHT22;30784;48.490;9.688;2022-08-19T01:16:05;21.50;59.80
45044;DHT22;30784;48.490;9.688;2022-08-19T01:18:32;21.50;60.10
45044;DHT22;30784;48.490;9.688;2022-08-19T01:21:04;21.40;60.10
45044;DHT22;30784;48.490;9.688;2022-08-19T01:23:31;21.40;60.20
45044;DHT22;30784;48.490;9.688;2022-08-19T01:26:22;21.40;60.40
45044;DHT22;30784;48.490;9.688;2022-08-19T01:28:51;21.40;60.10
45044;DHT22;30784;48.490;9.688;2022-08-19T01:31:21;21.40;60.40
45044;DHT22;30784;48.490;9.688;2022-08-19T01:33:48;21.40;60.50
45044;DHT22;30784;48.490;9.688;2022-08-19T01:36:21;21.40;60.40
45044;DHT22;30784;48.490;9.688;2022-08-19T01:38:48;21.40;60.40
45044;DHT22;30784;48.490;9.688;2022-08-19T01:41:13;21.40;60.30
45044;DHT22;30784;48.490;9.688;2022-08-19T01:43:40;21.40;60.60
45044;DHT22;30784;48.490;9.688;2022-08-19T01:46:05;21.40;60.60
45044;DHT22;30784;48.490;9.688;2022-08-19T01:48:39;21.40;60.50
45044;DHT22;30784;48.490;9.688;2022-08-19T01:51:07;21.40;60.40
45044;DHT22;30784;48.490;9.688;2022-08-19T01:53:33;21.30;60.60
45044;DHT22;30784;48.490;9.688;2022-08-19T01:55:59;21.30;60.50
45044;DHT22;30784;48.490;9.688;2022-08-19T01:58:30;21.30;60.60
45044;DHT22;30784;48.490;9.688;2022-08-19T02:00:56;21.30;60.60
45044;DHT22;30784;48.490;9.688;2022-08-19T02:03:23;21.30;60.80
45044;DHT22;30784;48.490;9.688;2022-08-19T02:05:56;21.30;60.80
45044;DHT22;30784;48.490;9.688;2022-08-19T02:08:23;21.30;60.80
45044;DHT22;30784;48.490;9.688;2022-08-19T02:10:48;21.20;60.80
45044;DHT22;30784;48.490;9.688;2022-08-19T02:13:15;21.30;61.00
45044;DHT22;30784;48.490;9.688;2022-08-19T02:15:41;21.30;61.00
45044;DHT22;30784;48.490;9.688;2022-08-19T02:18:07;21.30;61.00
45044;DHT22;30784;48.490;9.688;2022-08-19T02:20:33;21.30;61.00
45044;DHT22;30784;48.490;9.688;2022-08-19T02:22:59;21.30;61.00
45044;DHT22;30784;48.490;9.688;2022-08-19T02:25:26;21.30;60.90
45044;DHT22;30784;48.490;9.688;2022-08-19T02:27:52;21.30;61.00
45044;DHT22;30784;48.490;9.688;2022-08-19T02:30:20;21.30;61.20
45044;DHT22;30784;48.490;9.688;2022-08-19T02:32:46;21.30;61.10
45044;DHT22;30784;48.490;9.688;2022-08-19T02:35:13;21.20;61.00
45044;DHT22;30784;48.490;9.688;2022-08-19T02:37:40;21.20;61.00
45044;DHT22;30784;48.490;9.688;2022-08-19T02:40:24;21.20;61.30
45044;DHT22;30784;48.490;9.688;2022-08-19T02:42:50;21.20;61.20
45044;DHT22;30784;48.490;9.688;2022-08-19T02:45:16;21.20;61.30
45044;DHT22;30784;48.490;9.688;2022-08-19T02:47:41;21.20;61.30
45044;DHT22;30784;48.490;9.688;2022-08-19T02:50:08;21.10;61.90
45044;DHT22;30784;48.490;9.688;2022-08-19T02:52:34;21.10;61.40
45044;DHT22;30784;48.490;9.688;2022-08-19T02:55:00;21.10;61.40
45044;DHT22;30784;48.490;9.688;2022-08-19T02:57:26;21.10;61.40
45044;DHT22;30784;48.490;9.688;2022-08-19T02:59:53;21.10;61.40
45044;DHT22;30784;48.490;9.688;2022-08-19T03:02:19;21.10;61.50
45044;DHT22;30784;48.490;9.688;2022-08-19T03:04:45;21.10;61.50
45044;DHT22;30784;48.490;9.688;2022-08-19T03:07:15;21.10;61.60
45044;DHT22;30784;48.490;9.688;2022-08-19T03:09:41;21.10;61.50
45044;DHT22;30784;48.490;9.688;2022-08-19T03:12:08;21.10;61.70
45044;DHT22;30784;48.490;9.688;2022-08-19T03:14:34;21.10;61.70
45044;DHT22;30784;48.490;9.688;2022-08-19T03:17:01;21.10;61.80
45044;DHT22;30784;48.490;9.688;2022-08-19T03:19:28;21.10;61.80
45044;DHT22;30784;48.490;9.688;2022-08-19T03:21:54;21.10;61.80
45044;DHT22;30784;48.490;9.688;2022-08-19T03:24:21;21.00;61.80
45044;DHT22;30784;48.490;9.688;2022-08-19T03:26:50;21.00;61.80
45044;DHT22;30784;48.490;9.688;2022-08-19T03:29:17;21.00;61.90
45044;DHT22;30784;48.490;9.688;2022-08-19T03:31:43;21.00;61.90
45044;DHT22;30784;48.490;9.688;2022-08-19T03:34:11;21.00;62.00
45044;DHT22;30784;48.490;9.688;2022-08-19T03:36:37;21.00;62.00
45044;DHT22;30784;48.490;9.688;2022-08-19T03:39:03;21.00;62.10
45044;DHT22;30784;48.490;9.688;2022-08-19T03:41:32;21.00;62.10
45044;DHT22;30784;48.490;9.688;2022-08-19T03:43:58;21.00;62.20
45044;DHT22;30784;48.490;9.688;2022-08-19T03:46:30;21.00;62.20
45044;DHT22;30784;48.490;9.688;2022-08-19T03:48:58;20.90;62.20
45044;DHT22;30784;48.490;9.688;2022-08-19T03:51:27;20.90;62.30
45044;DHT22;30784;48.490;9.688;2022-08-19T03:53:54;20.90;62.40
45044;DHT22;30784;48.490;9.688;2022-08-19T03:56:21;20.90;62.30
45044;DHT22;30784;48.490;9.688;2022-08-19T03:58:47;20.90;62.40
45044;DHT22;30784;48.490;9.688;2022-08-19T04:01:16;20.90;62.40
45044;DHT22;30784;48.490;9.688;2022-08-19T04:03:44;20.90;62.40
45044;DHT22;30784;48.490;9.688;2022-08-19T04:06:18;20.90;62.10
45044;DHT22;30784;48.490;9.688;2022-08-19T04:08:46;20.90;62.40
45044;DHT22;30784;48.490;9.688;2022-08-19T04:11:15;20.90;62.40
45044;DHT22;30784;48.490;9.688;2022-08-19T04:13:41;20.90;62.50
45044;DHT22;30784;48.490;9.688;2022-08-19T04:16:09;20.90;62.50
45044;DHT22;30784;48.490;9.688;2022-08-19T04:18:36;20.90;62.80
45044;DHT22;30784;48.490;9.688;2022-08-19T04:21:04;20.80;62.70
45044;DHT22;30784;48.490;9.688;2022-08-19T04:23:30;20.80;62.60
45044;DHT22;30784;48.490;9.688;2022-08-19T04:25:55;20.80;62.70
45044;DHT22;30784;48.490;9.688;2022-08-19T04:28:22;20.80;62.80
45044;DHT22;30784;48.490;9.688;2022-08-19T04:30:50;20.80;62.90
45044;DHT22;30784;48.490;9.688;2022-08-19T04:33:20;20.80;63.10
45044;DHT22;30784;48.490;9.688;2022-08-19T04:35:47;20.70;63.00
45044;DHT22;30784;48.490;9.688;2022-08-19T04:38:15;20.70;63.00
45044;DHT22;30784;48.490;9.688;2022-08-19T04:40:45;20.70;63.00
45044;DHT22;30784;48.490;9.688;2022-08-19T04:43:30;20.70;63.00
45044;DHT22;30784;48.490;9.688;2022-08-19T04:45:56;20.70;63.30
45044;DHT22;30784;48.490;9.688;2022-08-19T04:48:23;20.70;63.20
45044;DHT22;30784;48.490;9.688;2022-08-19T04:50:58;20.70;63.30
45044;DHT22;30784;48.490;9.688;2022-08-19T04:53:28;20.70;63.30
45044;DHT22;30784;48.490;9.688;2022-08-19T04:56:03;20.70;63.40
45044;DHT22;30784;48.490;9.688;2022-08-19T04:58:29;20.70;63.10
45044;DHT22;30784;48.490;9.688;2022-08-19T05:00:54;20.70;63.30
45044;DHT22;30784;48.490;9.688;2022-08-19T05:03:20;20.70;63.30
45044;DHT22;30784;48.490;9.688;2022-08-19T05:05:47;20.70;63.40
45044;DHT22;30784;48.490;9.688;2022-08-19T05:08:15;20.70;63.40
45044;DHT22;30784;48.490;9.688;2022-08-19T05:10:48;20.70;63.60
45044;DHT22;30784;48.490;9.688;2022-08-19T05:13:16;20.70;63.60
45044;DHT22;30784;48.490;9.688;2022-08-19T05:15:42;20.70;63.70
45044;DHT22;30784;48.490;9.688;2022-08-19T05:18:08;20.70;63.70
45044;DHT22;30784;48.490;9.688;2022-08-19T05:20:53;20.70;63.70
45044;DHT22;30784;48.490;9.688;2022-08-19T05:23:37;20.70;63.70
45044;DHT22;30784;48.490;9.688;2022-08-19T05:26:03;20.70;63.80
45044;DHT22;30784;48.490;9.688;2022-08-19T05:28:29;20.70;63.90
45044;DHT22;30784;48.490;9.688;2022-08-19T05:30:55;20.70;63.90
45044;DHT22;30784;48.490;9.688;2022-08-19T05:33:21;20.60;63.90
45044;DHT22;30784;48.490;9.688;2022-08-19T05:35:47;20.60;63.90
45044;DHT22;30784;48.490;9.688;2022-08-19T05:38:15;20.70;64.10
45044;DHT22;30784;48.490;9.688;2022-08-19T05:40:41;20.70;64.10
45044;DHT22;30784;48.490;9.688;2022-08-19T05:43:07;20.70;64.10
45044;DHT22;30784;48.490;9.688;2022-08-19T05:45:37;20.70;64.00
45044;DHT22;30784;48.490;9.688;2022-08-19T05:48:03;20.70;64.10
45044;DHT22;30784;48.490;9.688;2022-08-19T05:50:28;20.70;64.20
45044;DHT22;30784;48.490;9.688;2022-08-19T05:52:55;20.70;64.20
45044;DHT22;30784;48.490;9.688;2022-08-19T05:55:20;20.70;64.10
45044;DHT22;30784;48.490;9.688;2022-08-19T05:57:47;20.70;64.20
45044;DHT22;30784;48.490;9.688;2022-08-19T06:00:13;20.60;64.20
45044;DHT22;30784;48.490;9.688;2022-08-19T06:02:39;20.60;64.20
45044;DHT22;30784;48.490;9.688;2022-08-19T06:05:06;20.60;64.20
45044;DHT22;30784;48.490;9.688;2022-08-19T06:07:35;20.60;64.20
45044;DHT22;30784;48.490;9.688;2022-08-19T06:10:03;20.60;64.30
45044;DHT22;30784;48.490;9.688;2022-08-19T06:12:30;20.60;64.40
45044;DHT22;30784;48.490;9.688;2022-08-19T06:15:17;20.60;64.40
45044;DHT22;30784;48.490;9.688;2022-08-19T06:17:43;20.60;64.20
45044;DHT22;30784;48.490;9.688;2022-08-19T06:20:12;20.60;64.30
45044;DHT22;30784;48.490;9.688;2022-08-19T06:22:39;20.60;64.40
45044;DHT22;30784;48.490;9.688;2022-08-19T06:25:06;20.60;64.50
45044;DHT22;30784;48.490;9.688;2022-08-19T06:27:31;20.60;64.50
45044;DHT22;30784;48.490;9.688;2022-08-19T06:29:58;20.60;64.60
45044;DHT22;30784;48.490;9.688;2022-08-19T06:32:24;20.60;64.70
45044;DHT22;30784;48.490;9.688;2022-08-19T06:34:49;20.60;64.80
45044;DHT22;30784;48.490;9.688;2022-08-19T06:37:15;20.60;64.80
45044;DHT22;30784;48.490;9.688;2022-08-19T06:39:43;20.60;64.90
45044;DHT22;30784;48.490;9.688;2022-08-19T06:42:09;20.60;64.80
45044;DHT22;30784;48.490;9.688;2022-08-19T06:44:39;20.60;64.90
45044;DHT22;30784;48.490;9.688;2022-08-19T06:47:07;20.60;65.00
45044;DHT22;30784;48.490;9.688;2022-08-19T06:49:33;20.60;65.00
45044;DHT22;30784;48.490;9.688;2022-08-19T06:52:00;20.60;65.00
45044;DHT22;30784;48.490;9.688;2022-08-19T06:54:27;20.60;65.10
45044;DHT22;30784;48.490;9.688;2022-08-19T06:56:55;20.60;65.00
45044;DHT22;30784;48.490;9.688;2022-08-19T06:59:23;20.60;64.90
45044;DHT22;30784;48.490;9.688;2022-08-19T07:01:53;20.60;65.00
45044;DHT22;30784;48.490;9.688;2022-08-19T07:04:25;20.50;65.00
45044;DHT22;30784;48.490;9.688;2022-08-19T07:07:01;20.60;65.00
45044;DHT22;30784;48.490;9.688;2022-08-19T07:09:27;20.60;64.90
45044;DHT22;30784;48.490;9.688;2022-08-19T07:11:54;20.50;64.90
45044;DHT22;30784;48.490;9.688;2022-08-19T07:14:26;20.60;65.00
45044;DHT22;30784;48.490;9.688;2022-08-19T07:16:54;20.50;64.90
45044;DHT22;30784;48.490;9.688;2022-08-19T07:19:21;20.60;65.30
45044;DHT22;30784;48.490;9.688;2022-08-19T07:21:49;20.50;65.00
45044;DHT22;30784;48.490;9.688;2022-08-19T07:24:19;20.60;65.10
45044;DHT22;30784;48.490;9.688;2022-08-19T07:26:45;20.60;65.20
45044;DHT22;30784;48.490;9.688;2022-08-19T07:29:12;20.50;65.30
45044;DHT22;30784;48.490;9.688;2022-08-19T07:31:38;20.50;65.30
45044;DHT22;30784;48.490;9.688;2022-08-19T07:34:07;20.50;65.30
45044;DHT22;30784;48.490;9.688;2022-08-19T07:36:35;20.50;65.30
45044;DHT22;30784;48.490;9.688;2022-08-19T07:39:08;20.50;65.30
45044;DHT22;30784;48.490;9.688;2022-08-19T07:41:34;20.50;65.30
45044;DHT22;30784;48.490;9.688;2022-08-19T07:44:02;20.50;65.30
45044;DHT22;30784;48.490;9.688;2022-08-19T07:46:37;20.50;65.40
45044;DHT22;30784;48.490;9.688;2022-08-19T07:49:04;20.50;65.40
45044;DHT22;30784;48.490;9.688;2022-08-19T07:51:32;20.50;65.50
45044;DHT22;30784;48.490;9.688;2022-08-19T07:53:58;20.50;65.40
45044;DHT22;30784;48.490;9.688;2022-08-19T07:56:24;20.50;65.50
45044;DHT22;30784;48.490;9.688;2022-08-19T07:58:51;20.40;65.40
45044;DHT22;30784;48.490;9.688;2022-08-19T08:01:20;20.50;65.60
45044;DHT22;30784;48.490;9.688;2022-08-19T08:03:47;20.50;65.60
45044;DHT22;30784;48.490;9.688;2022-08-19T08:06:31;20.50;65.60
45044;DHT22;30784;48.490;9.688;2022-08-19T08:09:26;20.50;65.50
45044;DHT22;30784;48.490;9.688;2022-08-19T08:11:54;20.50;65.40
45044;DHT22;30784;48.490;9.688;2022-08-19T08:14:23;20.50;65.50
45044;DHT22;30784;48.490;9.688;2022-08-19T08:16:50;20.50;65.40
45044;DHT22;30784;48.490;9.688;2022-08-19T08:19:18;20.50;65.50
45044;DHT22;30784;48.490;9.688;2022-08-19T08:21:44;20.50;65.50
45044;DHT22;30784;48.490;9.688;2022-08-19T08:24:11;20.50;65.60
45044;DHT22;30784;48.490;9.688;2022-08-19T08:26:38;20.50;65.70
45044;DHT22;30784;48.490;9.688;2022-08-19T08:29:03;20.40;65.70
45044;DHT22;30784;48.490;9.688;2022-08-19T08:31:29;20.40;65.90
45044;DHT22;30784;48.490;9.688;2022-08-19T08:33:55;20.40;65.80
45044;DHT22;30784;48.490;9.688;2022-08-19T08:36:21;20.40;65.80
45044;DHT22;30784;48.490;9.688;2022-08-19T08:38:47;20.40;66.00
45044;DHT22;30784;48.490;9.688;2022-08-19T08:41:31;20.40;66.10
45044;DHT22;30784;48.490;9.688;2022-08-19T08:44:00;20.40;65.90
45044;DHT22;30784;48.490;9.688;2022-08-19T08:46:56;20.40;66.10
45044;DHT22;30784;48.490;9.688;2022-08-19T08:49:37;20.40;65.90
45044;DHT22;30784;48.490;9.688;2022-08-19T08:52:11;20.40;66.00
45044;DHT22;30784;48.490;9.688;2022-08-19T08:54:44;20.40;66.10
45044;DHT22;30784;48.490;9.688;2022-08-19T09:00:19;20.40;66.20
45044;DHT22;30784;48.490;9.688;2022-08-19T09:02:46;20.40;66.10
45044;DHT22;30784;48.490;9.688;2022-08-19T09:05:13;20.40;66.70
45044;DHT22;30784;48.490;9.688;2022-08-19T09:08:12;20.40;66.20
45044;DHT22;30784;48.490;9.688;2022-08-19T09:10:44;20.40;66.10
45044;DHT22;30784;48.490;9.688;2022-08-19T09:16:13;20.40;66.10
45044;DHT22;30784;48.490;9.688;2022-08-19T09:18:49;20.40;66.10
45044;DHT22;30784;48.490;9.688;2022-08-19T09:21:17;20.50;66.20
45044;DHT22;30784;48.490;9.688;2022-08-19T09:23:43;20.50;66.30
45044;DHT22;30784;48.490;9.688;2022-08-19T09:26:13;20.40;66.30
45044;DHT22;30784;48.490;9.688;2022-08-19T09:28:40;20.40;66.40
45044;DHT22;30784;48.490;9.688;2022-08-19T09:31:10;20.40;66.40
45044;DHT22;30784;48.490;9.688;2022-08-19T09:33:36;20.40;66.50
45044;DHT22;30784;48.490;9.688;2022-08-19T09:36:10;20.50;66.60
45044;DHT22;30784;48.490;9.688;2022-08-19T09:38:37;20.50;66.50
45044;DHT22;30784;48.490;9.688;2022-08-19T09:41:11;20.50;66.50
45044;DHT22;30784;48.490;9.688;2022-08-19T09:43:38;20.50;66.50
45044;DHT22;30784;48.490;9.688;2022-08-19T09:46:04;20.50;66.50
45044;DHT22;30784;48.490;9.688;2022-08-19T09:48:32;20.50;66.60
45044;DHT22;30784;48.490;9.688;2022-08-19T09:51:13;20.50;66.60
45044;DHT22;30784;48.490;9.688;2022-08-19T09:53:42;20.50;66.60
45044;DHT22;30784;48.490;9.688;2022-08-19T09:56:09;20.40;66.70
45044;DHT22;30784;48.490;9.688;2022-08-19T09:58:35;20.50;66.80
45044;DHT22;30784;48.490;9.688;2022-08-19T10:01:02;20.40;66.80
45044;DHT22;30784;48.490;9.688;2022-08-19T10:03:29;20.40;66.90
45044;DHT22;30784;48.490;9.688;2022-08-19T10:05:56;20.40;67.00
45044;DHT22;30784;48.490;9.688;2022-08-19T10:08:27;20.40;67.00
45044;DHT22;30784;48.490;9.688;2022-08-19T10:10:55;20.40;67.10
45044;DHT22;30784;48.490;9.688;2022-08-19T10:13:23;20.40;67.10
45044;DHT22;30784;48.490;9.688;2022-08-19T10:15:51;20.40;67.20
45044;DHT22;30784;48.490;9.688;2022-08-19T10:18:18;20.40;67.30
45044;DHT22;30784;48.490;9.688;2022-08-19T10:20:46;20.50;67.30
45044;DHT22;30784;48.490;9.688;2022-08-19T10:23:12;20.50;67.30
45044;DHT22;30784;48.490;9.688;2022-08-19T10:25:38;20.50;67.40
45044;DHT22;30784;48.490;9.688;2022-08-19T10:28:04;20.50;67.40
45044;DHT22;30784;48.490;9.688;2022-08-19T10:30:31;20.50;67.40
45044;DHT22;30784;48.490;9.688;2022-08-19T10:32:57;20.60;67.50
45044;DHT22;30784;48.490;9.688;2022-08-19T10:35:23;20.60;67.30
45044;DHT22;30784;48.490;9.688;2022-08-19T10:37:50;20.60;67.30
45044;DHT22;30784;48.490;9.688;2022-08-19T10:40:16;20.60;67.20
45044;DHT22;30784;48.490;9.688;2022-08-19T10:42:41;20.60;67.10
45044;DHT22;30784;48.490;9.688;2022-08-19T10:45:07;20.60;67.10
45044;DHT22;30784;48.490;9.688;2022-08-19T10:47:35;20.60;67.20
45044;DHT22;30784;48.490;9.688;2022-08-19T10:50:00;20.60;67.30
45044;DHT22;30784;48.490;9.688;2022-08-19T10:52:46;20.60;67.20
45044;DHT22;30784;48.490;9.688;2022-08-19T10:55:12;20.60;67.30
45044;DHT22;30784;48.490;9.688;2022-08-19T10:57:56;20.60;67.30
45044;DHT22;30784;48.490;9.688;2022-08-19T11:00:23;20.70;67.20
45044;DHT22;30784;48.490;9.688;2022-08-19T11:02:50;20.70;67.20
45044;DHT22;30784;48.490;9.688;2022-08-19T11:05:16;20.70;67.20
45044;DHT22;30784;48.490;9.688;2022-08-19T11:07:43;20.70;67.20
45044;DHT22;30784;48.490;9.688;2022-08-19T11:10:11;20.70;67.20
45044;DHT22;30784;48.490;9.688;2022-08-19T11:12:39;20.70;67.20
45044;DHT22;30784;48.490;9.688;2022-08-19T11:15:07;20.60;67.30
45044;DHT22;30784;48.490;9.688;2022-08-19T11:17:37;20.70;67.30
45044;DHT22;30784;48.490;9.688;2022-08-19T11:20:06;20.60;67.30
45044;DHT22;30784;48.490;9.688;2022-08-19T11:22:32;20.70;67.40
45044;DHT22;30784;48.490;9.688;2022-08-19T11:24:58;20.70;67.40
45044;DHT22;30784;48.490;9.688;2022-08-19T11:27:23;20.70;67.40
45044;DHT22;30784;48.490;9.688;2022-08-19T11:29:49;20.70;67.40
45044;DHT22;30784;48.490;9.688;2022-08-19T11:32:14;20.70;67.40
45044;DHT22;30784;48.490;9.688;2022-08-19T11:34:41;20.70;67.40
45044;DHT22;30784;48.490;9.688;2022-08-19T11:37:07;20.70;67.40
45044;DHT22;30784;48.490;9.688;2022-08-19T11:39:34;20.70;67.50
45044;DHT22;30784;48.490;9.688;2022-08-19T11:42:04;20.70;67.40
45044;DHT22;30784;48.490;9.688;2022-08-19T11:44:50;20.80;67.40
45044;DHT22;30784;48.490;9.688;2022-08-19T11:47:16;20.80;67.40
45044;DHT22;30784;48.490;9.688;2022-08-19T11:49:41;20.80;67.30
45044;DHT22;30784;48.490;9.688;2022-08-19T11:52:08;20.80;67.30
45044;DHT22;30784;48.490;9.688;2022-08-19T11:54:34;20.80;67.40
45044;DHT22;30784;48.490;9.688;2022-08-19T11:56:59;20.80;67.40
45044;DHT22;30784;48.490;9.688;2022-08-19T11:59:27;20.80;67.50
45044;DHT22;30784;48.490;9.688;2022-08-19T12:01:54;20.80;67.50
45044;DHT22;30784;48.490;9.688;2022-08-19T12:04:21;20.80;67.40
45044;DHT22;30784;48.490;9.688;2022-08-19T12:06:46;20.80;67.40
45044;DHT22;30784;48.490;9.688;2022-08-19T12:09:12;20.80;67.50
45044;DHT22;30784;48.490;9.688;2022-08-19T12:11:39;20.80;67.60
45044;DHT22;30784;48.490;9.688;2022-08-19T12:14:06;20.80;68.10
45044;DHT22;30784;48.490;9.688;2022-08-19T12:16:34;20.80;67.60
45044;DHT22;30784;48.490;9.688;2022-08-19T12:19:00;20.80;67.70
45044;DHT22;30784;48.490;9.688;2022-08-19T12:21:30;20.80;67.60
45044;DHT22;30784;48.490;9.688;2022-08-19T12:23:58;20.80;67.70
45044;DHT22;30784;48.490;9.688;2022-08-19T12:26:25;20.80;67.60
45044;DHT22;30784;48.490;9.688;2022-08-19T12:28:51;20.80;67.60
45044;DHT22;30784;48.490;9.688;2022-08-19T12:31:17;20.80;67.60
45044;DHT22;30784;48.490;9.688;2022-08-19T12:33:45;20.90;67.60
45044;DHT22;30784;48.490;9.688;2022-08-19T12:36:12;20.90;67.60
45044;DHT22;30784;48.490;9.688;2022-08-19T12:38:39;20.90;67.60
45044;DHT22;30784;48.490;9.688;2022-08-19T12:41:05;20.90;67.60
45044;DHT22;30784;48.490;9.688;2022-08-19T12:43:34;20.90;67.70
45044;DHT22;30784;48.490;9.688;2022-08-19T12:46:00;20.90;67.50
45044;DHT22;30784;48.490;9.688;2022-08-19T12:48:26;20.90;67.20
45044;DHT22;30784;48.490;9.688;2022-08-19T12:50:52;20.90;67.10
45044;DHT22;30784;48.490;9.688;2022-08-19T12:53:18;20.90;67.30
45044;DHT22;30784;48.490;9.688;2022-08-19T12:55:44;20.80;67.20
45044;DHT22;30784;48.490;9.688;2022-08-19T12:58:09;20.80;67.20
45044;DHT22;30784;48.490;9.688;2022-08-19T13:00:35;20.80;67.30
45044;DHT22;30784;48.490;9.688;2022-08-19T13:03:01;20.80;67.40
45044;DHT22;30784;48.490;9.688;2022-08-19T13:05:30;20.80;67.50
45044;DHT22;30784;48.490;9.688;2022-08-19T13:07:57;20.80;67.40
45044;DHT22;30784;48.490;9.688;2022-08-19T13:10:29;20.80;67.50
45044;DHT22;30784;48.490;9.688;2022-08-19T13:12:55;20.80;67.50
45044;DHT22;30784;48.490;9.688;2022-08-19T13:15:23;20.80;67.50
45044;DHT22;30784;48.490;9.688;2022-08-19T13:17:50;20.80;67.40
45044;DHT22;30784;48.490;9.688;2022-08-19T13:20:17;20.80;67.50
45044;DHT22;30784;48.490;9.688;2022-08-19T13:22:44;20.80;67.60
45044;DHT22;30784;48.490;9.688;2022-08-19T13:25:11;20.80;67.60
45044;DHT22;30784;48.490;9.688;2022-08-19T13:27:37;20.80;67.70
45044;DHT22;30784;48.490;9.688;2022-08-19T13:30:04;20.80;67.80
45044;DHT22;30784;48.490;9.688;2022-08-19T13:32:49;20.80;67.80
45044;DHT22;30784;48.490;9.688;2022-08-19T13:35:33;20.80;67.80
45044;DHT22;30784;48.490;9.688;2022-08-19T13:37:58;20.80;67.80
45044;DHT22;30784;48.490;9.688;2022-08-19T13:40:26;20.90;67.90
45044;DHT22;30784;48.490;9.688;2022-08-19T13:42:53;20.90;67.90
45044;DHT22;30784;48.490;9.688;2022-08-19T13:45:21;20.90;67.90
45044;DHT22;30784;48.490;9.688;2022-08-19T13:47:49;20.90;67.90
45044;DHT22;30784;48.490;9.688;2022-08-19T13:50:18;20.90;67.90
45044;DHT22;30784;48.490;9.688;2022-08-19T13:52:44;20.90;67.80
45044;DHT22;30784;48.490;9.688;2022-08-19T13:55:11;20.90;67.70
45044;DHT22;30784;48.490;9.688;2022-08-19T13:57:37;20.90;68.30
45044;DHT22;30784;48.490;9.688;2022-08-19T14:00:10;20.90;67.90
45044;DHT22;30784;48.490;9.688;2022-08-19T14:02:37;21.00;67.90
45044;DHT22;30784;48.490;9.688;2022-08-19T14:05:04;20.90;67.80
45044;DHT22;30784;48.490;9.688;2022-08-19T14:07:30;21.00;67.80
45044;DHT22;30784;48.490;9.688;2022-08-19T14:09:56;21.00;67.80
45044;DHT22;30784;48.490;9.688;2022-08-19T14:12:22;21.00;67.90
45044;DHT22;30784;48.490;9.688;2022-08-19T14:14:48;21.00;67.80
45044;DHT22;30784;48.490;9.688;2022-08-19T14:17:14;21.00;67.90
45044;DHT22;30784;48.490;9.688;2022-08-19T14:19:41;21.00;67.90
45044;DHT22;30784;48.490;9.688;2022-08-19T14:22:06;21.10;68.00
45044;DHT22;30784;48.490;9.688;2022-08-19T14:24:32;21.10;68.00
45044;DHT22;30784;48.490;9.688;2022-08-19T14:26:58;21.10;67.90
45044;DHT22;30784;48.490;9.688;2022-08-19T14:29:25;21.10;67.80
45044;DHT22;30784;48.490;9.688;2022-08-19T14:31:50;21.20;67.80
45044;DHT22;30784;48.490;9.688;2022-08-19T14:34:16;21.20;67.70
45044;DHT22;30784;48.490;9.688;2022-08-19T14:36:41;21.20;67.60
45044;DHT22;30784;48.490;9.688;2022-08-19T14:39:08;21.20;67.60
45044;DHT22;30784;48.490;9.688;2022-08-19T14:41:35;21.20;67.40
45044;DHT22;30784;48.490;9.688;2022-08-19T14:44:00;21.20;67.30
45044;DHT22;30784;48.490;9.688;2022-08-19T14:46:27;21.20;67.20
45044;DHT22;30784;48.490;9.688;2022-08-19T14:48:54;21.10;67.00
45044;DHT22;30784;48.490;9.688;2022-08-19T14:51:24;21.10;66.80
45044;DHT22;30784;48.490;9.688;2022-08-19T14:53:51;21.10;66.80
45044;DHT22;30784;48.490;9.688;2022-08-19T14:56:22;21.10;66.80
45044;DHT22;30784;48.490;9.688;2022-08-19T14:58:48;21.10;67.00
45044;DHT22;30784;48.490;9.688;2022-08-19T15:01:17;21.10;66.90
45044;DHT22;30784;48.490;9.688;2022-08-19T15:03:42;21.10;66.90
45044;DHT22;30784;48.490;9.688;2022-08-19T15:06:08;21.10;66.90
45044;DHT22;30784;48.490;9.688;2022-08-19T15:08:35;21.10;66.90
45044;DHT22;30784;48.490;9.688;2022-08-19T15:11:02;21.10;66.80
45044;DHT22;30784;48.490;9.688;2022-08-19T15:13:29;21.10;66.80
45044;DHT22;30784;48.490;9.688;2022-08-19T15:15:55;21.10;66.80
45044;DHT22;30784;48.490;9.688;2022-08-19T15:18:21;21.10;66.80
45044;DHT22;30784;48.490;9.688;2022-08-19T15:20:48;21.20;66.90
45044;DHT22;30784;48.490;9.688;2022-08-19T15:23:17;21.20;66.80
45044;DHT22;30784;48.490;9.688;2022-08-19T15:25:44;21.20;66.70
45044;DHT22;30784;48.490;9.688;2022-08-19T15:28:10;21.20;66.60
45044;DHT22;30784;48.490;9.688;2022-08-19T15:30:37;21.20;66.50
45044;DHT22;30784;48.490;9.688;2022-08-19T15:33:03;21.30;67.00
45044;DHT22;30784;48.490;9.688;2022-08-19T15:35:29;21.30;66.50
45044;DHT22;30784;48.490;9.688;2022-08-19T15:37:55;21.30;66.50
45044;DHT22;30784;48.490;9.688;2022-08-19T15:40:22;21.30;66.40
45044;DHT22;30784;48.490;9.688;2022-08-19T15:42:48;21.30;66.30
45044;DHT22;30784;48.490;9.688;2022-08-19T15:45:15;21.30;66.30